createdAt,value
2023-01-26T00:00:45.736Z,42.87
2023-01-26T00:03:34.168Z,49.83
2023-01-26T00:06:23.060Z,52.43
2023-01-26T00:09:14.465Z,52.23
2023-01-26T00:12:01.851Z,53.40
2023-01-26T00:14:52.127Z,45.53
2023-01-26T00:17:39.530Z,49.60
2023-01-26T00:20:27.558Z,47.43
2023-01-26T00:23:14.964Z,47.00
2023-01-26T00:26:02.440Z,47.97
2023-01-26T00:28:50.341Z,47.13
2023-01-26T00:31:37.767Z,53.40
2023-01-26T00:34:25.272Z,51.10
2023-01-26T00:37:12.620Z,48.00
2023-01-26T00:40:00.018Z,48.77
2023-01-26T00:42:47.401Z,51.93
2023-01-26T00:45:35.957Z,52.77
2023-01-26T00:48:24.775Z,54.00
2023-01-26T00:51:12.352Z,52.67
2023-01-26T00:53:59.734Z,56.27
2023-01-26T00:56:47.069Z,49.83
2023-01-26T00:59:34.435Z,49.83
2023-01-26T01:02:22.147Z,55.30
2023-01-26T01:05:09.856Z,57.13
2023-01-26T01:07:57.474Z,58.97
2023-01-26T01:10:44.879Z,56.20
2023-01-26T01:13:32.278Z,66.00
2023-01-26T01:16:19.696Z,59.67
2023-01-26T01:19:07.340Z,65.73
2023-01-26T01:21:54.720Z,61.90
2023-01-26T01:24:42.134Z,63.03
2023-01-26T01:27:29.493Z,58.73
2023-01-26T01:30:16.918Z,60.93
2023-01-26T01:33:04.406Z,59.73
2023-01-26T01:35:58.543Z,60.23
2023-01-26T01:38:46.513Z,62.10
2023-01-26T01:41:33.891Z,57.67
2023-01-26T01:44:22.623Z,61.43
2023-01-26T01:47:12.899Z,58.10
2023-01-26T01:50:04.134Z,60.20
2023-01-26T01:52:52.216Z,58.40
2023-01-26T01:55:39.969Z,60.57
2023-01-26T01:58:29.590Z,68.87
2023-01-26T02:01:17.114Z,60.70
2023-01-26T02:04:05.963Z,60.63
2023-01-26T02:06:54.635Z,66.77
2023-01-26T02:10:01.427Z,63.20
2023-01-26T02:12:50.412Z,60.63
2023-01-26T02:15:38.327Z,63.17
2023-01-26T02:18:25.775Z,57.20
2023-01-26T02:21:17.330Z,66.57
2023-01-26T02:24:04.821Z,60.97
2023-01-26T02:26:53.387Z,65.50
2023-01-26T02:29:41.836Z,72.23
2023-01-26T02:32:29.208Z,63.07
2023-01-26T02:35:16.607Z,68.40
2023-01-26T02:38:03.975Z,69.33
2023-01-26T02:40:56.127Z,64.70
2023-01-26T02:43:43.612Z,64.57
2023-01-26T02:46:31.216Z,64.87
2023-01-26T02:49:37.671Z,68.37
2023-01-26T02:52:26.020Z,68.47
2023-01-26T02:55:22.562Z,70.83
2023-01-26T02:58:09.941Z,68.80
2023-01-26T03:00:57.401Z,62.43
2023-01-26T03:03:45.596Z,64.03
2023-01-26T03:06:33.050Z,61.43
2023-01-26T03:09:20.418Z,61.87
2023-01-26T03:12:07.804Z,66.70
2023-01-26T03:15:13.974Z,64.53
2023-01-26T03:18:22.002Z,66.70
2023-01-26T03:21:32.131Z,65.37
2023-01-26T03:24:37.936Z,58.97
2023-01-26T03:27:28.447Z,58.87
2023-01-26T03:30:18.235Z,57.60
2023-01-26T03:33:05.816Z,55.00
2023-01-26T03:35:54.924Z,58.70
2023-01-26T03:38:42.321Z,54.13
2023-01-26T03:41:48.593Z,55.80
2023-01-26T03:44:54.665Z,52.60
2023-01-26T03:48:00.763Z,44.10
2023-01-26T03:51:06.624Z,51.03
2023-01-26T03:54:12.993Z,44.07
2023-01-26T03:57:00.374Z,47.43
2023-01-26T03:59:47.777Z,47.37
2023-01-26T04:02:53.624Z,45.73
2023-01-26T04:06:16.057Z,45.07
2023-01-26T04:09:04.299Z,44.93
2023-01-26T04:11:51.733Z,53.33
2023-01-26T04:14:57.947Z,52.70
2023-01-26T04:18:04.104Z,47.30
2023-01-26T04:21:10.331Z,46.90
2023-01-26T04:23:58.361Z,44.80
2023-01-26T04:26:45.839Z,50.57
2023-01-26T04:29:33.188Z,49.37
2023-01-26T04:32:20.653Z,65.07
2023-01-26T04:35:08.880Z,52.47
2023-01-26T04:37:56.241Z,51.13
2023-01-26T04:40:43.622Z,49.00
2023-01-26T04:43:30.967Z,49.77
2023-01-26T04:46:18.341Z,51.87
2023-01-26T04:49:05.795Z,49.50
2023-01-26T04:51:53.133Z,48.17
2023-01-26T04:54:40.827Z,48.67
2023-01-26T04:57:28.177Z,53.93
2023-01-26T05:00:15.656Z,50.63
2023-01-26T05:03:03.048Z,43.77
2023-01-26T05:05:51.456Z,55.83
2023-01-26T05:08:38.951Z,50.40
2023-01-26T05:11:26.609Z,47.87
2023-01-26T05:14:15.243Z,49.10
2023-01-26T05:17:02.622Z,51.83
2023-01-26T05:19:50.055Z,49.93
2023-01-26T05:22:37.415Z,50.53
2023-01-26T05:25:24.983Z,52.30
2023-01-26T05:28:12.321Z,52.43
2023-01-26T05:30:59.727Z,48.30
2023-01-26T05:33:47.213Z,50.87
2023-01-26T05:36:34.601Z,49.97
2023-01-26T05:39:21.991Z,53.10
2023-01-26T05:42:09.474Z,50.13
2023-01-26T05:44:56.839Z,48.93
2023-01-26T05:47:45.278Z,52.20
2023-01-26T05:50:32.632Z,69.13
2023-01-26T05:53:20.012Z,57.77
2023-01-26T05:56:07.580Z,62.80
2023-01-26T05:58:54.942Z,72.20
2023-01-26T06:01:42.303Z,56.47
2023-01-26T06:04:29.966Z,71.10
2023-01-26T06:07:17.389Z,55.50
2023-01-26T06:10:05.444Z,52.33
2023-01-26T06:12:52.780Z,48.07
2023-01-26T06:15:40.170Z,52.50
2023-01-26T06:18:27.525Z,47.60
2023-01-26T06:21:14.886Z,49.60
2023-01-26T06:24:02.421Z,50.83
2023-01-26T06:26:49.801Z,49.83
2023-01-26T06:29:37.206Z,50.83
2023-01-26T06:32:25.403Z,55.43
2023-01-26T06:35:12.739Z,49.20
2023-01-26T06:38:00.225Z,54.20
2023-01-26T06:40:47.582Z,50.67
2023-01-26T06:43:35.651Z,50.60
2023-01-26T06:46:23.093Z,53.10
2023-01-26T06:49:10.746Z,51.53
2023-01-26T06:52:00.008Z,52.83
2023-01-26T06:54:49.482Z,53.30
2023-01-26T06:57:36.833Z,48.93
2023-01-26T07:00:24.218Z,45.53
2023-01-26T07:03:11.752Z,45.47
2023-01-26T07:05:59.147Z,51.80
2023-01-26T07:08:46.518Z,49.93
2023-01-26T07:11:33.926Z,44.20
2023-01-26T07:14:21.333Z,47.00
2023-01-26T07:17:08.751Z,47.70
2023-01-26T07:19:56.097Z,48.50
2023-01-26T07:22:43.451Z,46.20
2023-01-26T07:25:30.968Z,42.10
2023-01-26T07:28:18.878Z,43.13
2023-01-26T07:31:06.938Z,51.60
2023-01-26T07:33:54.331Z,46.03
2023-01-26T07:36:41.740Z,40.40
2023-01-26T07:39:29.113Z,41.70
2023-01-26T07:42:16.485Z,48.30
2023-01-26T07:45:03.946Z,39.93
2023-01-26T07:47:53.124Z,36.87
2023-01-26T07:50:40.481Z,38.73
2023-01-26T07:53:29.312Z,38.27
2023-01-26T07:56:19.502Z,34.53
2023-01-26T07:59:06.891Z,40.50
2023-01-26T08:01:54.280Z,38.73
2023-01-26T08:04:41.688Z,35.43
2023-01-26T08:07:29.029Z,37.77
2023-01-26T08:10:16.541Z,36.33
2023-01-26T08:13:04.079Z,31.93
2023-01-26T08:15:51.463Z,32.20
2023-01-26T08:18:39.275Z,30.67
2023-01-26T08:21:26.774Z,28.43
2023-01-26T08:24:14.309Z,31.13
2023-01-26T08:27:01.673Z,29.80
2023-01-26T08:29:49.132Z,29.30
2023-01-26T08:32:36.522Z,27.63
2023-01-26T08:35:23.921Z,28.13
2023-01-26T08:38:11.270Z,30.50
2023-01-26T08:40:59.026Z,33.87
2023-01-26T08:43:46.471Z,32.30
2023-01-26T08:46:33.874Z,27.37
2023-01-26T08:49:21.286Z,32.20
2023-01-26T08:52:08.659Z,29.50
2023-01-26T08:54:56.045Z,26.67
2023-01-26T08:57:43.606Z,24.33
2023-01-26T09:00:31.275Z,26.83
2023-01-26T09:03:19.324Z,23.07
2023-01-26T09:06:07.001Z,25.37
2023-01-26T09:08:54.353Z,24.33
2023-01-26T09:11:41.782Z,25.70
2023-01-26T09:14:29.227Z,22.73
2023-01-26T09:17:16.589Z,25.87
2023-01-26T09:20:05.011Z,21.60
2023-01-26T09:22:52.340Z,23.60
2023-01-26T09:25:40.459Z,21.57
2023-01-26T09:28:28.011Z,21.00
2023-01-26T09:31:15.452Z,19.20
2023-01-26T09:34:02.870Z,17.87
2023-01-26T09:36:50.227Z,17.23
2023-01-26T09:39:37.605Z,18.10
2023-01-26T09:42:24.924Z,18.77
2023-01-26T09:45:15.162Z,16.77
2023-01-26T09:48:10.139Z,17.63
2023-01-26T09:51:00.965Z,16.93
2023-01-26T09:53:51.144Z,16.00
2023-01-26T09:56:38.543Z,16.57
2023-01-26T09:59:34.868Z,18.30
2023-01-26T10:02:31.349Z,16.80
2023-01-26T10:05:36.842Z,17.73
2023-01-26T10:08:24.941Z,18.70
2023-01-26T10:11:16.911Z,20.33
2023-01-26T10:14:09.076Z,18.83
2023-01-26T10:16:56.885Z,21.10
2023-01-26T10:19:55.099Z,22.37
2023-01-26T10:22:45.325Z,19.33
2023-01-26T10:25:40.651Z,17.27
2023-01-26T10:28:35.099Z,22.63
2023-01-26T10:31:23.636Z,19.70
2023-01-26T10:34:15.999Z,24.53
2023-01-26T10:37:12.766Z,26.30
2023-01-26T10:40:02.025Z,24.33
2023-01-26T10:42:57.243Z,25.60
2023-01-26T10:45:48.364Z,25.13
2023-01-26T10:48:35.747Z,24.13
2023-01-26T10:51:33.657Z,23.40
2023-01-26T10:54:23.182Z,24.40
2023-01-26T10:57:28.268Z,25.03
2023-01-26T11:00:29.945Z,27.47
2023-01-26T11:03:18.776Z,24.33
2023-01-26T11:06:16.442Z,26.17
2023-01-26T11:09:15.713Z,26.77
2023-01-26T11:12:05.671Z,28.63
2023-01-26T11:15:02.407Z,28.57
2023-01-26T11:18:05.166Z,25.60
2023-01-26T11:20:57.849Z,30.37
2023-01-26T11:24:01.957Z,25.93
2023-01-26T11:27:08.027Z,27.67
2023-01-26T11:30:06.140Z,28.70
2023-01-26T11:33:02.042Z,30.60
2023-01-26T11:35:55.000Z,29.33
2023-01-26T11:38:43.749Z,25.87
2023-01-26T11:41:33.874Z,30.67
2023-01-26T11:44:24.344Z,34.00
2023-01-26T11:47:22.766Z,27.73
2023-01-26T11:50:25.151Z,31.03
2023-01-26T11:53:26.371Z,23.27
2023-01-26T11:56:19.790Z,32.83
2023-01-26T11:59:11.918Z,26.67
2023-01-26T12:02:02.395Z,29.03
2023-01-26T12:04:50.058Z,24.80
2023-01-26T12:07:57.213Z,32.50
2023-01-26T12:10:49.396Z,31.83
2023-01-26T12:13:39.590Z,43.37
2023-01-26T12:16:32.050Z,35.80
2023-01-26T12:19:31.531Z,42.80
2023-01-26T12:22:34.437Z,28.73
2023-01-26T12:25:21.826Z,28.87
2023-01-26T12:28:20.149Z,25.13
2023-01-26T12:31:07.522Z,31.00
2023-01-26T12:33:56.437Z,33.10
2023-01-26T12:37:02.689Z,40.10
2023-01-26T12:39:57.106Z,28.50
2023-01-26T12:43:03.252Z,35.33
2023-01-26T12:45:53.447Z,37.00
2023-01-26T12:48:40.871Z,35.33
2023-01-26T12:51:30.665Z,35.40
2023-01-26T12:54:24.601Z,37.73
2023-01-26T12:57:18.308Z,38.17
2023-01-26T13:00:19.064Z,38.57
2023-01-26T13:03:15.225Z,31.30
2023-01-26T13:06:18.944Z,35.80
2023-01-26T13:09:24.303Z,28.17
2023-01-26T13:12:31.622Z,32.80
2023-01-26T13:15:20.182Z,43.37
2023-01-26T13:18:12.972Z,60.40
2023-01-26T13:21:00.388Z,70.60
2023-01-26T13:23:47.851Z,49.33
2023-01-26T13:26:35.219Z,63.97
2023-01-26T13:29:25.502Z,104.07
2023-01-26T13:32:16.579Z,60.03
2023-01-26T13:35:05.744Z,38.07
2023-01-26T13:37:53.211Z,41.23
2023-01-26T13:40:46.207Z,109.33
2023-01-26T13:43:36.564Z,48.50
2023-01-26T13:46:24.137Z,38.97
2023-01-26T13:49:26.364Z,37.63
2023-01-26T13:52:16.518Z,32.93
2023-01-26T13:55:05.556Z,40.17
2023-01-26T13:58:12.448Z,27.53
2023-01-26T14:00:59.923Z,35.97
2023-01-26T14:03:47.601Z,26.93
2023-01-26T14:06:37.052Z,28.73
2023-01-26T14:09:26.381Z,25.07
2023-01-26T14:12:21.936Z,22.30
2023-01-26T14:15:20.948Z,23.77
2023-01-26T14:18:20.460Z,23.27
2023-01-26T14:21:17.007Z,26.50
2023-01-26T14:24:09.579Z,21.80
2023-01-26T14:26:57.016Z,23.10
2023-01-26T14:29:44.543Z,29.63
2023-01-26T14:32:32.123Z,23.33
2023-01-26T14:35:23.025Z,19.67
2023-01-26T14:38:15.348Z,18.17
2023-01-26T14:41:03.747Z,25.50
2023-01-26T14:43:57.216Z,19.50
2023-01-26T14:46:56.264Z,21.77
2023-01-26T14:49:43.646Z,19.50
2023-01-26T14:52:33.912Z,20.33
2023-01-26T14:55:27.048Z,18.80
2023-01-26T14:58:25.982Z,24.23
2023-01-26T15:01:21.089Z,19.93
2023-01-26T15:04:34.698Z,25.57
2023-01-26T15:07:48.431Z,18.70
2023-01-26T15:10:35.791Z,21.07
2023-01-26T15:13:31.125Z,22.20
2023-01-26T15:16:19.727Z,24.43
2023-01-26T15:19:07.904Z,23.77
2023-01-26T15:21:55.351Z,20.73
2023-01-26T15:24:42.825Z,23.77
2023-01-26T15:27:37.299Z,23.50
2023-01-26T15:30:27.100Z,20.20
2023-01-26T15:33:33.268Z,17.83
2023-01-26T15:36:25.271Z,22.80
2023-01-26T15:39:13.051Z,23.98
2023-01-26T15:42:05.238Z,16.53
2023-01-26T15:44:52.590Z,19.85
2023-01-26T15:47:39.989Z,21.27
2023-01-26T15:50:28.499Z,14.57
2023-01-26T15:53:16.709Z,17.43
2023-01-26T15:56:04.085Z,12.80
2023-01-26T15:58:51.442Z,16.60
2023-01-26T16:01:38.782Z,20.17
2023-01-26T16:04:28.111Z,19.60
2023-01-26T16:07:17.250Z,25.50
2023-01-26T16:10:04.890Z,17.13
2023-01-26T16:12:52.920Z,18.13
2023-01-26T16:15:44.211Z,18.37
2023-01-26T16:18:31.818Z,16.63
2023-01-26T16:21:21.541Z,19.23
2023-01-26T16:24:11.161Z,13.70
2023-01-26T16:26:58.632Z,16.77
2023-01-26T16:29:45.966Z,16.87
2023-01-26T16:32:33.345Z,14.43
2023-01-26T16:35:22.024Z,20.60
2023-01-26T16:38:12.937Z,13.27
2023-01-26T16:41:00.385Z,16.80
2023-01-26T16:43:47.768Z,12.23
2023-01-26T16:46:35.127Z,12.47
2023-01-26T16:49:22.529Z,19.67
2023-01-26T16:52:10.387Z,14.17
2023-01-26T16:54:58.794Z,15.07
2023-01-26T16:57:49.683Z,21.70
2023-01-26T17:00:37.092Z,19.10
2023-01-26T17:03:25.346Z,14.07
2023-01-26T17:06:12.719Z,10.60
2023-01-26T17:09:00.219Z,18.43
2023-01-26T17:11:47.596Z,16.73
2023-01-26T17:14:34.957Z,16.37
2023-01-26T17:17:22.342Z,19.50
2023-01-26T17:20:18.935Z,18.90
2023-01-26T17:23:07.055Z,14.50
2023-01-26T17:25:58.415Z,13.50
2023-01-26T17:28:46.527Z,17.47
2023-01-26T17:31:34.461Z,11.17
2023-01-26T17:34:22.194Z,12.43
2023-01-26T17:37:09.648Z,20.57
2023-01-26T17:39:57.028Z,19.07
2023-01-26T17:42:44.451Z,15.03
2023-01-26T17:45:31.809Z,15.93
2023-01-26T17:48:19.241Z,21.38
2023-01-26T17:51:10.352Z,13.77
2023-01-26T17:53:57.968Z,20.08
2023-01-26T17:56:45.480Z,12.47
2023-01-26T17:59:32.860Z,15.60
2023-01-26T18:02:20.463Z,15.93
2023-01-26T18:05:08.799Z,14.60
2023-01-26T18:07:56.216Z,20.10
2023-01-26T18:10:43.575Z,16.92
2023-01-26T18:13:31.891Z,18.70
2023-01-26T18:16:20.101Z,19.23
2023-01-26T18:19:07.561Z,18.47
2023-01-26T18:21:54.950Z,20.17
2023-01-26T18:24:42.352Z,15.90
2023-01-26T18:27:29.798Z,21.43
2023-01-26T18:30:17.377Z,16.60
2023-01-26T18:33:04.934Z,17.93
2023-01-26T18:35:52.289Z,19.90
2023-01-26T18:38:40.178Z,18.67
2023-01-26T18:41:30.262Z,14.50
2023-01-26T18:44:18.453Z,19.23
2023-01-26T18:47:05.849Z,20.07
2023-01-26T18:49:53.213Z,13.97
2023-01-26T18:52:40.680Z,14.90
2023-01-26T18:55:28.045Z,16.90
2023-01-26T18:58:15.384Z,19.33
2023-01-26T19:01:09.549Z,18.50
2023-01-26T19:03:58.607Z,16.70
2023-01-26T19:06:47.471Z,16.30
2023-01-26T19:09:35.777Z,16.67
2023-01-26T19:12:23.196Z,15.30
2023-01-26T19:15:10.957Z,14.30
2023-01-26T19:17:59.030Z,16.73
2023-01-26T19:20:54.992Z,19.67
2023-01-26T19:23:42.692Z,18.70
2023-01-26T19:26:30.578Z,16.20
2023-01-26T19:29:17.947Z,18.83
2023-01-26T19:32:05.498Z,14.23
2023-01-26T19:34:52.844Z,18.63
2023-01-26T19:37:40.182Z,14.23
2023-01-26T19:40:27.544Z,16.27
2023-01-26T19:43:15.388Z,14.50
2023-01-26T19:46:03.378Z,15.17
2023-01-26T19:48:51.092Z,13.03
2023-01-26T19:51:38.732Z,14.07
2023-01-26T19:54:26.185Z,19.70
2023-01-26T19:57:13.515Z,15.63
2023-01-26T20:00:00.958Z,14.83
2023-01-26T20:02:49.188Z,13.53
2023-01-26T20:05:37.422Z,15.57
2023-01-26T20:08:25.197Z,17.87
2023-01-26T20:11:12.595Z,16.60
2023-01-26T20:14:04.512Z,17.03
2023-01-26T20:16:51.905Z,15.37
2023-01-26T20:19:39.282Z,15.77
2023-01-26T20:22:33.316Z,18.83
2023-01-26T20:25:20.704Z,16.53
2023-01-26T20:28:08.080Z,17.20
2023-01-26T20:30:59.156Z,16.77
2023-01-26T20:33:50.370Z,16.13
2023-01-26T20:36:40.253Z,16.63
2023-01-26T20:39:28.199Z,16.90
2023-01-26T20:42:18.112Z,19.03
2023-01-26T20:45:05.669Z,18.33
2023-01-26T20:47:53.108Z,14.83
2023-01-26T20:50:41.000Z,16.30
2023-01-26T20:53:28.401Z,16.80
2023-01-26T20:56:16.394Z,13.07
2023-01-26T20:59:04.434Z,12.43
2023-01-26T21:01:51.953Z,12.93
2023-01-26T21:04:40.055Z,13.30
2023-01-26T21:07:28.572Z,10.83
2023-01-26T21:10:16.427Z,11.50
2023-01-26T21:13:03.827Z,9.87
2023-01-26T21:15:52.589Z,9.47
2023-01-26T21:18:40.128Z,10.20
2023-01-26T21:21:27.654Z,9.50
2023-01-26T21:24:15.094Z,9.83
2023-01-26T21:27:02.891Z,8.53
2023-01-26T21:29:50.620Z,7.87
2023-01-26T21:32:37.986Z,8.33
2023-01-26T21:35:25.374Z,11.67
2023-01-26T21:38:12.706Z,8.20
2023-01-26T21:41:00.676Z,7.07
2023-01-26T21:43:48.053Z,6.17
2023-01-26T21:46:35.808Z,7.37
2023-01-26T21:49:23.747Z,7.10
2023-01-26T21:52:31.406Z,7.40
2023-01-26T21:55:18.768Z,7.90
2023-01-26T21:58:24.679Z,4.67
2023-01-26T22:01:12.118Z,3.93
2023-01-26T22:04:00.578Z,5.77
2023-01-26T22:06:48.048Z,7.00
2023-01-26T22:09:37.534Z,5.23
2023-01-26T22:12:24.909Z,5.33
2023-01-26T22:15:12.342Z,5.20
2023-01-26T22:17:59.705Z,5.23
2023-01-26T22:20:47.071Z,5.40
2023-01-26T22:23:37.896Z,7.90
2023-01-26T22:26:25.245Z,9.57
2023-01-26T22:29:13.143Z,8.77
2023-01-26T22:32:00.710Z,6.07
2023-01-26T22:34:48.148Z,4.53
2023-01-26T22:37:35.555Z,4.37
2023-01-26T22:40:22.924Z,5.83
2023-01-26T22:43:10.280Z,8.13
2023-01-26T22:46:04.595Z,4.37
2023-01-26T22:48:52.269Z,3.50
2023-01-26T22:51:39.687Z,4.90
2023-01-26T22:54:27.712Z,3.93
2023-01-26T22:57:15.323Z,5.37
2023-01-26T23:00:02.819Z,4.37
2023-01-26T23:02:50.305Z,4.83
2023-01-26T23:05:37.762Z,5.60
2023-01-26T23:08:25.186Z,3.80
2023-01-26T23:11:16.592Z,3.93
2023-01-26T23:14:04.012Z,3.23
2023-01-26T23:16:51.524Z,4.33
2023-01-26T23:19:38.912Z,5.57
2023-01-26T23:22:26.343Z,4.93
2023-01-26T23:25:33.248Z,3.53
2023-01-26T23:28:24.949Z,4.93
2023-01-26T23:31:13.783Z,5.20
2023-01-26T23:34:02.038Z,8.07
2023-01-26T23:36:49.416Z,4.87
2023-01-26T23:39:36.792Z,4.50
2023-01-26T23:42:24.215Z,4.03
2023-01-26T23:45:11.650Z,4.13
2023-01-26T23:47:59.095Z,3.67
2023-01-26T23:50:46.500Z,5.13
2023-01-26T23:53:34.155Z,5.67
2023-01-26T23:56:21.517Z,4.03
2023-01-26T23:59:08.921Z,4.73
